createdAt,value
2022-10-17T00:01:31.248Z,30.90
2022-10-17T00:03:59.970Z,28.30
2022-10-17T00:06:28.911Z,27.63
2022-10-17T00:08:57.787Z,29.37
2022-10-17T00:11:26.547Z,28.87
2022-10-17T00:13:58.091Z,27.67
2022-10-17T00:16:28.328Z,28.80
2022-10-17T00:18:57.463Z,28.77
2022-10-17T00:21:26.970Z,29.80
2022-10-17T00:23:56.158Z,31.07
2022-10-17T00:26:25.120Z,29.37
2022-10-17T00:28:54.958Z,28.13
2022-10-17T00:31:26.129Z,27.10
2022-10-17T00:33:55.117Z,28.20
2022-10-17T00:36:25.987Z,27.50
2022-10-17T00:38:57.401Z,29.10
2022-10-17T00:41:29.808Z,27.87
2022-10-17T00:44:02.563Z,26.63
2022-10-17T00:46:34.783Z,25.77
2022-10-17T00:49:07.812Z,24.67
2022-10-17T00:51:42.197Z,28.27
2022-10-17T00:54:14.194Z,28.37
2022-10-17T00:56:43.363Z,29.57
2022-10-17T00:59:14.246Z,29.77
2022-10-17T01:01:49.939Z,30.87
2022-10-17T01:04:19.483Z,32.17
2022-10-17T01:06:48.063Z,31.90
2022-10-17T01:09:16.630Z,31.47
2022-10-17T01:11:52.561Z,31.93
2022-10-17T01:14:27.968Z,31.07
2022-10-17T01:17:08.914Z,30.83
2022-10-17T01:19:58.334Z,32.30
2022-10-17T01:22:34.458Z,33.47
2022-10-17T01:25:26.009Z,31.20
2022-10-17T01:28:06.339Z,29.13
2022-10-17T01:31:00.664Z,26.60
2022-10-17T01:33:47.644Z,25.87
2022-10-17T01:36:26.319Z,26.13
2022-10-17T01:39:00.034Z,24.17
2022-10-17T01:41:36.916Z,23.77
2022-10-17T01:44:11.428Z,22.73
2022-10-17T01:46:45.150Z,25.10
2022-10-17T01:49:16.812Z,25.53
2022-10-17T01:51:48.816Z,26.90
2022-10-17T01:54:24.515Z,26.07
2022-10-17T01:56:59.684Z,24.63
2022-10-17T01:59:33.177Z,26.77
2022-10-17T02:02:04.172Z,28.13
2022-10-17T02:04:33.002Z,27.73
2022-10-17T02:07:08.561Z,29.83
2022-10-17T02:09:37.607Z,31.03
2022-10-17T02:12:23.550Z,30.20
2022-10-17T02:15:06.266Z,30.70
2022-10-17T02:17:49.144Z,30.37
2022-10-17T02:20:24.751Z,29.80
2022-10-17T02:22:58.778Z,30.80
2022-10-17T02:25:37.011Z,30.23
2022-10-17T02:28:17.469Z,28.60
2022-10-17T02:30:52.952Z,30.83
2022-10-17T02:33:28.221Z,31.10
2022-10-17T02:36:04.130Z,30.77
2022-10-17T02:38:35.669Z,32.43
2022-10-17T02:41:06.319Z,31.43
2022-10-17T02:43:36.661Z,32.63
2022-10-17T02:46:08.084Z,32.73
2022-10-17T02:48:43.054Z,32.13
2022-10-17T02:51:19.094Z,33.50
2022-10-17T02:53:56.218Z,33.00
2022-10-17T02:56:27.933Z,32.90
2022-10-17T02:58:59.796Z,32.63
2022-10-17T03:01:30.507Z,32.03
2022-10-17T03:04:19.730Z,31.40
2022-10-17T03:06:50.152Z,31.73
2022-10-17T03:09:20.364Z,31.67
2022-10-17T03:11:49.136Z,31.50
2022-10-17T03:14:18.019Z,30.77
2022-10-17T03:16:46.682Z,29.97
2022-10-17T03:19:18.492Z,29.70
2022-10-17T03:21:47.404Z,31.10
2022-10-17T03:24:16.076Z,31.33
2022-10-17T03:29:15.508Z,30.77
2022-10-17T03:31:44.317Z,30.63
2022-10-17T03:34:13.175Z,32.20
2022-10-17T03:36:43.307Z,32.63
2022-10-17T03:39:12.014Z,33.20
2022-10-17T03:41:40.839Z,32.00
2022-10-17T03:44:09.578Z,35.07
2022-10-17T03:46:38.564Z,32.97
2022-10-17T03:49:08.149Z,32.27
2022-10-17T03:51:38.217Z,33.13
2022-10-17T03:54:13.188Z,32.07
2022-10-17T03:56:41.974Z,32.50
2022-10-17T03:59:15.683Z,32.77
2022-10-17T04:01:50.505Z,33.67
2022-10-17T04:04:20.332Z,32.70
2022-10-17T04:06:49.108Z,32.83
2022-10-17T04:09:19.929Z,33.97
2022-10-17T04:12:03.131Z,33.33
2022-10-17T04:14:33.099Z,33.80
2022-10-17T04:17:03.362Z,34.13
2022-10-17T04:19:33.136Z,35.83
2022-10-17T04:22:03.177Z,35.13
2022-10-17T04:24:36.936Z,35.80
2022-10-17T04:27:11.958Z,35.80
2022-10-17T04:29:45.391Z,36.93
2022-10-17T04:32:25.957Z,36.87
2022-10-17T04:35:02.989Z,37.20
2022-10-17T04:37:31.715Z,37.53
2022-10-17T04:40:06.506Z,37.63
2022-10-17T04:42:36.603Z,38.50
2022-10-17T04:45:06.884Z,37.67
2022-10-17T04:47:37.056Z,36.27
2022-10-17T04:50:06.851Z,36.00
2022-10-17T04:52:38.485Z,34.27
2022-10-17T04:55:09.503Z,33.90
2022-10-17T04:57:38.423Z,35.80
2022-10-17T05:00:25.751Z,36.10
2022-10-17T05:03:02.618Z,35.00
2022-10-17T05:05:32.032Z,39.10
2022-10-17T05:08:01.515Z,39.33
2022-10-17T05:10:39.011Z,41.30
2022-10-17T05:13:08.649Z,41.50
2022-10-17T05:15:38.332Z,40.37
2022-10-17T05:18:07.550Z,38.23
2022-10-17T05:20:37.088Z,38.37
2022-10-17T05:23:05.753Z,37.87
2022-10-17T05:25:40.443Z,39.33
2022-10-17T05:28:08.939Z,38.40
2022-10-17T05:30:38.190Z,39.20
2022-10-17T05:33:09.316Z,39.17
2022-10-17T05:35:38.076Z,41.00
2022-10-17T05:38:07.664Z,40.90
2022-10-17T05:40:38.605Z,39.37
2022-10-17T05:43:08.506Z,39.47
2022-10-17T05:45:37.906Z,40.80
2022-10-17T05:48:10.111Z,40.83
2022-10-17T05:50:38.678Z,41.00
2022-10-17T05:53:13.145Z,40.93
2022-10-17T05:55:46.838Z,40.00
2022-10-17T05:58:22.017Z,38.27
2022-10-17T06:00:59.449Z,38.47
2022-10-17T06:03:29.050Z,40.00
2022-10-17T06:05:58.123Z,36.83
2022-10-17T06:08:26.647Z,38.37
2022-10-17T06:10:55.114Z,37.77
2022-10-17T06:13:25.027Z,38.23
2022-10-17T06:15:54.964Z,39.73
2022-10-17T06:18:23.792Z,40.93
2022-10-17T06:20:52.345Z,37.53
2022-10-17T06:23:22.291Z,39.03
2022-10-17T06:26:01.049Z,38.30
2022-10-17T06:28:32.791Z,39.27
2022-10-17T06:31:05.079Z,38.67
2022-10-17T06:33:33.940Z,39.43
2022-10-17T06:36:04.465Z,39.13
2022-10-17T06:38:34.799Z,40.30
2022-10-17T06:41:08.637Z,38.77
2022-10-17T06:43:39.753Z,40.57
2022-10-17T06:46:29.905Z,41.13
2022-10-17T06:49:01.707Z,40.17
2022-10-17T06:51:42.632Z,41.67
2022-10-17T06:54:14.242Z,41.37
2022-10-17T06:57:09.280Z,41.27
2022-10-17T07:00:02.546Z,41.27
2022-10-17T07:02:40.460Z,38.90
2022-10-17T07:05:09.771Z,38.70
2022-10-17T07:07:41.436Z,37.70
2022-10-17T07:10:13.300Z,37.13
2022-10-17T07:12:45.000Z,36.87
2022-10-17T07:15:15.330Z,35.17
2022-10-17T07:17:44.691Z,36.30
2022-10-17T07:20:13.444Z,33.40
2022-10-17T07:22:43.277Z,34.70
2022-10-17T07:25:11.773Z,33.90
2022-10-17T07:27:50.006Z,32.97
2022-10-17T07:30:21.574Z,30.77
2022-10-17T07:32:56.122Z,32.37
2022-10-17T07:35:24.915Z,32.50
2022-10-17T07:37:53.989Z,30.93
2022-10-17T07:40:23.323Z,31.50
2022-10-17T07:42:52.298Z,31.17
2022-10-17T07:45:23.836Z,29.00
2022-10-17T07:47:56.457Z,30.17
2022-10-17T07:50:25.273Z,30.47
2022-10-17T07:52:54.331Z,29.17
2022-10-17T07:55:22.899Z,27.73
2022-10-17T07:57:51.598Z,26.37
2022-10-17T08:00:20.442Z,27.17
2022-10-17T08:02:50.345Z,26.80
2022-10-17T08:05:18.813Z,28.27
2022-10-17T08:07:47.329Z,27.77
2022-10-17T08:10:17.424Z,28.08
2022-10-17T08:12:45.928Z,27.67
2022-10-17T08:15:14.633Z,25.63
2022-10-17T08:17:43.138Z,25.97
2022-10-17T08:20:13.673Z,25.67
2022-10-17T08:22:42.321Z,25.37
2022-10-17T08:25:11.286Z,26.15
2022-10-17T08:27:39.880Z,26.85
2022-10-17T08:30:09.669Z,25.48
2022-10-17T08:32:38.274Z,26.43
2022-10-17T08:35:07.584Z,26.20
2022-10-17T08:37:37.510Z,25.05
2022-10-17T08:40:07.014Z,25.67
2022-10-17T08:43:00.525Z,26.02
2022-10-17T08:45:33.842Z,23.77
2022-10-17T08:48:07.722Z,24.17
2022-10-17T08:50:41.514Z,22.92
2022-10-17T08:53:19.142Z,24.15
2022-10-17T08:55:49.916Z,23.50
2022-10-17T08:58:21.859Z,22.08
2022-10-17T09:01:01.009Z,22.63
2022-10-17T09:03:49.819Z,23.00
2022-10-17T09:06:24.509Z,21.73
2022-10-17T09:09:07.286Z,22.55
2022-10-17T09:11:46.228Z,20.90
2022-10-17T09:14:32.446Z,20.80
2022-10-17T09:17:15.810Z,20.52
2022-10-17T09:19:50.252Z,19.83
2022-10-17T09:22:22.926Z,21.02
2022-10-17T09:24:56.939Z,20.30
2022-10-17T09:27:29.279Z,20.95
2022-10-17T09:30:43.510Z,19.17
2022-10-17T09:33:35.184Z,18.38
2022-10-17T09:36:11.937Z,19.65
2022-10-17T09:38:43.270Z,18.77
2022-10-17T09:41:49.208Z,18.40
2022-10-17T09:44:21.865Z,18.27
2022-10-17T09:47:03.850Z,19.25
2022-10-17T09:49:34.398Z,18.95
2022-10-17T09:52:05.060Z,17.85
2022-10-17T09:54:42.410Z,18.75
2022-10-17T09:57:14.369Z,16.80
2022-10-17T09:59:45.098Z,15.32
2022-10-17T10:02:19.918Z,15.95
2022-10-17T10:05:16.333Z,16.55
2022-10-17T10:07:47.737Z,15.32
2022-10-17T10:10:27.851Z,15.80
2022-10-17T10:13:07.590Z,14.27
2022-10-17T10:15:41.129Z,13.90
2022-10-17T10:18:32.539Z,15.10
2022-10-17T10:21:08.053Z,15.25
2022-10-17T10:23:40.110Z,15.38
2022-10-17T10:26:39.177Z,14.93
2022-10-17T10:29:22.582Z,13.80
2022-10-17T10:31:52.242Z,14.52
2022-10-17T10:34:24.491Z,13.57
2022-10-17T10:37:03.635Z,13.63
2022-10-17T10:39:47.119Z,14.00
2022-10-17T10:42:23.973Z,13.07
2022-10-17T10:44:56.952Z,14.02
2022-10-17T10:47:28.435Z,14.05
2022-10-17T10:50:18.452Z,13.95
2022-10-17T10:52:51.722Z,12.82
2022-10-17T10:55:27.228Z,13.15
2022-10-17T10:58:02.130Z,12.65
2022-10-17T11:00:35.455Z,12.00
2022-10-17T11:03:14.799Z,11.85
2022-10-17T11:05:47.386Z,11.88
2022-10-17T11:08:24.830Z,10.85
2022-10-17T11:11:09.117Z,11.27
2022-10-17T11:13:44.836Z,11.20
2022-10-17T11:16:35.595Z,11.77
2022-10-17T11:19:14.698Z,12.18
2022-10-17T11:21:49.215Z,12.27
2022-10-17T11:24:24.739Z,10.05
2022-10-17T11:26:57.783Z,10.80
2022-10-17T11:29:30.130Z,9.65
2022-10-17T11:32:04.508Z,10.57
2022-10-17T11:34:37.456Z,9.30
2022-10-17T11:37:13.473Z,9.77
2022-10-17T11:39:48.636Z,11.00
2022-10-17T11:42:22.405Z,10.60
2022-10-17T11:44:57.355Z,10.20
2022-10-17T11:47:37.266Z,10.15
2022-10-17T11:53:13.274Z,10.25
2022-10-17T11:55:43.148Z,9.68
2022-10-17T12:01:15.135Z,9.88
2022-10-17T12:03:53.772Z,10.25
2022-10-17T12:06:42.080Z,9.80
2022-10-17T12:09:18.929Z,8.95
2022-10-17T12:11:54.145Z,8.88
2022-10-17T12:14:38.069Z,8.70
2022-10-17T12:17:21.442Z,8.70
2022-10-17T12:19:51.371Z,9.02
2022-10-17T12:22:26.108Z,8.70
2022-10-17T12:25:00.357Z,7.93
2022-10-17T12:27:42.400Z,8.43
2022-10-17T12:30:25.766Z,8.80
2022-10-17T12:33:08.150Z,8.50
2022-10-17T12:35:39.433Z,8.05
2022-10-17T12:38:26.114Z,7.45
2022-10-17T12:41:06.297Z,7.95
2022-10-17T12:46:51.101Z,7.95
2022-10-17T12:49:45.552Z,8.07
2022-10-17T12:55:26.553Z,7.28
2022-10-17T12:57:59.052Z,7.55
2022-10-17T13:00:35.215Z,6.93
2022-10-17T13:03:07.836Z,7.97
2022-10-17T13:05:39.663Z,6.72
2022-10-17T13:08:18.646Z,7.35
2022-10-17T13:10:52.393Z,7.90
2022-10-17T13:13:24.456Z,7.10
2022-10-17T13:15:55.917Z,7.57
2022-10-17T13:18:27.131Z,6.80
2022-10-17T13:21:00.875Z,7.32
2022-10-17T13:23:34.271Z,7.60
2022-10-17T13:26:09.065Z,8.13
2022-10-17T13:28:39.587Z,8.35
2022-10-17T13:31:08.927Z,7.65
2022-10-17T13:33:39.956Z,7.53
2022-10-17T13:36:15.718Z,7.55
2022-10-17T13:38:45.660Z,7.75
2022-10-17T13:41:35.744Z,7.82
2022-10-17T13:44:12.657Z,8.00
2022-10-17T13:46:41.835Z,8.10
2022-10-17T13:49:16.265Z,8.23
2022-10-17T13:51:47.224Z,7.78
2022-10-17T13:54:32.637Z,7.75
2022-10-17T13:57:02.807Z,8.07
2022-10-17T13:59:38.936Z,8.23
2022-10-17T14:02:12.662Z,8.63
2022-10-17T14:05:11.662Z,8.45
2022-10-17T14:07:58.067Z,8.43
2022-10-17T14:10:28.783Z,8.20
2022-10-17T14:12:57.962Z,9.05
2022-10-17T14:15:30.271Z,8.90
2022-10-17T14:18:05.457Z,8.90
2022-10-17T14:23:33.495Z,8.73
2022-10-17T14:26:09.827Z,8.75
2022-10-17T14:28:39.161Z,8.30
2022-10-17T14:31:15.115Z,8.90
2022-10-17T14:33:50.509Z,9.30
2022-10-17T14:36:20.999Z,9.18
2022-10-17T14:38:53.270Z,10.82
2022-10-17T14:41:42.530Z,10.68
2022-10-17T14:44:27.991Z,11.60
2022-10-17T14:47:00.251Z,11.55
2022-10-17T14:49:36.700Z,11.80
2022-10-17T14:52:28.269Z,12.43
2022-10-17T14:54:58.069Z,11.38
2022-10-17T14:57:35.847Z,10.75
2022-10-17T15:00:04.895Z,10.88
2022-10-17T15:02:33.619Z,10.95
2022-10-17T15:05:02.561Z,12.77
2022-10-17T15:07:31.242Z,12.02
2022-10-17T15:09:59.729Z,11.00
2022-10-17T15:12:29.800Z,11.52
2022-10-17T15:14:58.824Z,11.45
2022-10-17T15:17:30.120Z,10.85
2022-10-17T15:19:59.573Z,10.90
2022-10-17T15:22:28.373Z,11.43
2022-10-17T15:24:57.078Z,13.77
2022-10-17T15:27:31.452Z,11.52
2022-10-17T15:30:01.623Z,12.93
2022-10-17T15:32:30.115Z,11.85
2022-10-17T15:34:58.605Z,11.75
2022-10-17T15:37:27.231Z,30.45
2022-10-17T15:39:56.639Z,40.20
2022-10-17T15:42:29.881Z,57.65
2022-10-17T15:44:59.381Z,99.70
2022-10-17T15:47:33.321Z,97.07
2022-10-17T15:50:02.883Z,58.35
2022-10-17T15:52:31.363Z,42.20
2022-10-17T15:55:02.515Z,24.65
2022-10-17T15:57:45.293Z,19.27
2022-10-17T16:00:17.224Z,22.13
2022-10-17T16:02:47.375Z,22.98
2022-10-17T16:05:17.850Z,20.40
2022-10-17T16:07:46.908Z,17.60
2022-10-17T16:10:16.012Z,17.45
2022-10-17T16:12:45.202Z,16.33
2022-10-17T16:15:16.450Z,16.65
2022-10-17T16:17:46.551Z,15.45
2022-10-17T16:20:15.137Z,14.52
2022-10-17T16:22:45.547Z,14.13
2022-10-17T16:25:20.395Z,15.35
2022-10-17T16:27:50.030Z,14.95
2022-10-17T16:30:19.596Z,16.15
2022-10-17T16:32:49.874Z,17.65
2022-10-17T16:35:20.258Z,16.67
2022-10-17T16:37:48.945Z,17.77
2022-10-17T16:40:17.879Z,17.27
2022-10-17T16:42:46.426Z,17.27
2022-10-17T16:45:18.114Z,15.85
2022-10-17T16:47:46.897Z,17.23
2022-10-17T16:50:17.053Z,17.95
2022-10-17T16:52:45.548Z,17.27
2022-10-17T16:55:14.132Z,17.38
2022-10-17T17:00:14.302Z,18.98
2022-10-17T17:02:43.506Z,17.13
2022-10-17T17:05:12.614Z,16.50
2022-10-17T17:07:44.249Z,16.80
2022-10-17T17:10:13.121Z,16.95
2022-10-17T17:12:41.945Z,16.75
2022-10-17T17:15:10.744Z,16.70
2022-10-17T17:17:56.144Z,16.73
2022-10-17T17:20:25.693Z,17.02
2022-10-17T17:22:56.430Z,16.80
2022-10-17T17:25:25.036Z,16.70
2022-10-17T17:27:53.758Z,18.30
2022-10-17T17:30:22.273Z,18.52
2022-10-17T17:32:51.298Z,19.02
2022-10-17T17:35:20.014Z,18.98
2022-10-17T17:37:48.817Z,17.80
2022-10-17T17:40:19.313Z,18.75
2022-10-17T17:42:48.245Z,19.83
2022-10-17T17:45:17.198Z,18.77
2022-10-17T17:47:46.507Z,18.93
2022-10-17T17:50:15.370Z,18.33
2022-10-17T17:52:46.918Z,18.80
2022-10-17T17:55:15.786Z,19.83
2022-10-17T17:57:46.211Z,20.00
2022-10-17T18:00:17.382Z,19.97
2022-10-17T18:02:47.677Z,19.10
2022-10-17T18:05:16.646Z,20.37
2022-10-17T18:07:45.214Z,20.70
2022-10-17T18:12:46.281Z,19.97
2022-10-17T18:15:15.257Z,20.23
2022-10-17T18:17:45.350Z,19.80
2022-10-17T18:20:15.462Z,20.90
2022-10-17T18:22:44.250Z,20.27
2022-10-17T18:25:13.425Z,20.03
2022-10-17T18:27:42.511Z,19.92
2022-10-17T18:30:14.227Z,20.23
2022-10-17T18:32:43.058Z,21.70
2022-10-17T18:35:12.106Z,19.98
2022-10-17T18:40:15.675Z,21.80
2022-10-17T18:42:44.764Z,23.57
2022-10-17T18:45:15.756Z,24.43
2022-10-17T18:47:47.174Z,22.70
2022-10-17T18:50:15.994Z,22.40
2022-10-17T18:52:45.106Z,23.83
2022-10-17T18:55:13.873Z,23.17
2022-10-17T18:57:43.881Z,22.57
2022-10-17T19:00:16.310Z,23.50
2022-10-17T19:02:45.360Z,23.33
2022-10-17T19:05:14.147Z,24.17
2022-10-17T19:07:42.977Z,23.47
2022-10-17T19:10:11.691Z,23.13
2022-10-17T19:12:40.353Z,22.93
2022-10-17T19:15:09.836Z,23.47
2022-10-17T19:17:39.924Z,21.97
2022-10-17T19:20:09.979Z,23.87
2022-10-17T19:22:38.690Z,23.23
2022-10-17T19:25:08.037Z,23.87
2022-10-17T19:27:36.921Z,26.90
2022-10-17T19:30:06.601Z,28.10
2022-10-17T19:32:38.517Z,29.87
2022-10-17T19:35:11.259Z,28.13
2022-10-17T19:37:40.095Z,27.90
2022-10-17T19:40:10.248Z,26.80
2022-10-17T19:42:40.085Z,26.40
2022-10-17T19:45:11.617Z,26.87
2022-10-17T19:47:40.856Z,26.23
2022-10-17T19:50:11.393Z,25.90
2022-10-17T19:52:41.389Z,28.53
2022-10-17T19:55:10.535Z,29.13
2022-10-17T19:57:40.290Z,26.63
2022-10-17T20:00:09.974Z,27.87
2022-10-17T20:02:40.117Z,26.80
2022-10-17T20:05:18.595Z,27.47
2022-10-17T20:07:48.055Z,27.60
2022-10-17T20:10:19.083Z,29.33
2022-10-17T20:12:49.573Z,27.47
2022-10-17T20:15:18.422Z,28.83
2022-10-17T20:17:47.724Z,28.50
2022-10-17T20:20:18.960Z,27.77
2022-10-17T20:22:47.691Z,27.87
2022-10-17T20:25:16.475Z,28.23
2022-10-17T20:27:45.221Z,28.30
2022-10-17T20:30:14.505Z,27.37
2022-10-17T20:32:43.354Z,27.97
2022-10-17T20:35:11.954Z,27.20
2022-10-17T20:37:42.825Z,27.73
2022-10-17T20:43:01.307Z,26.40
2022-10-17T20:45:45.077Z,27.73
2022-10-17T20:48:20.996Z,29.53
2022-10-17T20:50:50.679Z,27.73
2022-10-17T20:53:37.871Z,28.67
2022-10-17T20:56:12.642Z,27.77
2022-10-17T20:58:43.581Z,29.50
2022-10-17T21:01:12.877Z,29.13
2022-10-17T21:03:45.596Z,29.03
2022-10-17T21:06:16.711Z,30.50
2022-10-17T21:08:47.735Z,27.93
2022-10-17T21:11:20.284Z,30.90
2022-10-17T21:13:55.926Z,31.00
2022-10-17T21:16:25.085Z,28.53
2022-10-17T21:18:54.074Z,28.70
2022-10-17T21:21:24.796Z,28.77
2022-10-17T21:23:57.137Z,29.23
2022-10-17T21:26:27.111Z,29.63
2022-10-17T21:28:56.635Z,27.97
2022-10-17T21:31:27.242Z,26.23
2022-10-17T21:33:58.239Z,27.73
2022-10-17T21:36:29.136Z,26.60
2022-10-17T21:39:02.304Z,26.10
2022-10-17T21:41:31.751Z,26.87
2022-10-17T21:44:05.209Z,26.80
2022-10-17T21:46:34.979Z,24.60
2022-10-17T21:49:04.163Z,25.30
2022-10-17T21:51:33.050Z,26.03
2022-10-17T21:54:05.682Z,26.30
2022-10-17T21:56:36.527Z,25.83
2022-10-17T21:59:08.792Z,24.50
2022-10-17T22:01:39.575Z,24.10
2022-10-17T22:04:11.727Z,24.67
2022-10-17T22:06:42.659Z,23.73
2022-10-17T22:09:15.060Z,23.57
2022-10-17T22:11:47.244Z,24.87
2022-10-17T22:14:17.605Z,23.67
2022-10-17T22:16:46.958Z,22.87
2022-10-17T22:19:20.245Z,24.47
2022-10-17T22:21:49.293Z,24.47
2022-10-17T22:26:54.875Z,24.17
2022-10-17T22:29:23.958Z,23.97
2022-10-17T22:31:52.784Z,24.03
2022-10-17T22:34:22.356Z,23.53
2022-10-17T22:36:52.021Z,23.93
2022-10-17T22:39:23.479Z,23.83
2022-10-17T22:41:52.344Z,23.07
2022-10-17T22:44:21.158Z,22.40
2022-10-17T22:46:50.004Z,23.07
2022-10-17T22:49:18.855Z,21.93
2022-10-17T22:51:47.483Z,23.47
2022-10-17T22:54:16.332Z,23.17
2022-10-17T22:56:47.896Z,21.93
2022-10-17T22:59:16.585Z,22.27
2022-10-17T23:01:45.478Z,23.00
2022-10-17T23:04:14.385Z,24.43
2022-10-17T23:06:43.264Z,22.20
2022-10-17T23:09:13.645Z,22.33
2022-10-17T23:11:42.646Z,23.77
2022-10-17T23:14:13.007Z,22.13
2022-10-17T23:16:42.624Z,23.70
2022-10-17T23:19:13.456Z,22.57
2022-10-17T23:21:42.265Z,22.53
2022-10-17T23:24:10.928Z,22.50
2022-10-17T23:26:40.538Z,22.63
2022-10-17T23:29:09.413Z,22.73
2022-10-17T23:31:39.679Z,21.57
2022-10-17T23:34:08.472Z,22.57
2022-10-17T23:36:38.614Z,22.53
2022-10-17T23:39:07.979Z,22.50
2022-10-17T23:41:36.888Z,23.50
2022-10-17T23:44:06.786Z,23.67
2022-10-17T23:46:35.558Z,22.90
2022-10-17T23:49:06.831Z,23.87
2022-10-17T23:51:40.077Z,22.40
2022-10-17T23:54:11.686Z,22.83
2022-10-17T23:56:40.811Z,23.90
2022-10-17T23:59:10.340Z,21.87
